sensor_id;sensor_type;location;lat;lon;timestamp;P1;durP1;ratioP1;P2;durP2;ratioP2
63089;SDS011;49174;43.198;27.824;2023-04-10T00:58:52;21.52;;;14.07;;
63089;SDS011;49174;43.198;27.824;2023-04-10T01:30:47;27.70;;;16.67;;
63089;SDS011;49174;43.198;27.824;2023-04-10T01:35:59;30.98;;;19.17;;
63089;SDS011;49174;43.198;27.824;2023-04-10T01:38:29;27.48;;;15.85;;
63089;SDS011;49174;43.198;27.824;2023-04-10T01:40:56;25.77;;;16.13;;
63089;SDS011;49174;43.198;27.824;2023-04-10T01:43:24;27.48;;;18.08;;
63089;SDS011;49174;43.198;27.824;2023-04-10T01:45:51;31.00;;;18.75;;
63089;SDS011;49174;43.198;27.824;2023-04-10T01:48:17;30.95;;;18.55;;
63089;SDS011;49174;43.198;27.824;2023-04-10T01:50:46;28.20;;;17.55;;
63089;SDS011;49174;43.198;27.824;2023-04-10T01:53:12;27.48;;;17.13;;
63089;SDS011;49174;43.198;27.824;2023-04-10T01:55:38;27.02;;;15.95;;
63089;SDS011;49174;43.198;27.824;2023-04-10T02:06:13;22.02;;;12.55;;
63089;SDS011;49174;43.198;27.824;2023-04-10T02:08:50;21.92;;;13.73;;
63089;SDS011;49174;43.198;27.824;2023-04-10T02:11:31;25.63;;;11.85;;
63089;SDS011;49174;43.198;27.824;2023-04-10T02:14:03;29.23;;;16.15;;
63089;SDS011;49174;43.198;27.824;2023-04-10T02:16:32;22.33;;;14.07;;
63089;SDS011;49174;43.198;27.824;2023-04-10T02:18:58;25.95;;;15.68;;
63089;SDS011;49174;43.198;27.824;2023-04-10T02:21:26;24.88;;;14.80;;
63089;SDS011;49174;43.198;27.824;2023-04-10T02:23:54;26.67;;;15.52;;
63089;SDS011;49174;43.198;27.824;2023-04-10T02:26:21;22.10;;;13.68;;
63089;SDS011;49174;43.198;27.824;2023-04-10T02:28:47;20.25;;;11.90;;
63089;SDS011;49174;43.198;27.824;2023-04-10T02:31:12;16.92;;;10.93;;
63089;SDS011;49174;43.198;27.824;2023-04-10T02:33:38;21.52;;;12.18;;
63089;SDS011;49174;43.198;27.824;2023-04-10T02:36:03;20.77;;;12.23;;
63089;SDS011;49174;43.198;27.824;2023-04-10T02:38:29;23.23;;;13.60;;
63089;SDS011;49174;43.198;27.824;2023-04-10T02:40:55;20.10;;;12.77;;
63089;SDS011;49174;43.198;27.824;2023-04-10T02:43:20;19.48;;;13.15;;
63089;SDS011;49174;43.198;27.824;2023-04-10T02:53:52;20.27;;;12.55;;
63089;SDS011;49174;43.198;27.824;2023-04-10T02:56:17;19.88;;;10.23;;
63089;SDS011;49174;43.198;27.824;2023-04-10T02:58:43;19.90;;;12.48;;
63089;SDS011;49174;43.198;27.824;2023-04-10T03:01:12;18.98;;;11.38;;
63089;SDS011;49174;43.198;27.824;2023-04-10T03:03:58;22.38;;;13.25;;
63089;SDS011;49174;43.198;27.824;2023-04-10T03:06:27;24.98;;;16.38;;
63089;SDS011;49174;43.198;27.824;2023-04-10T03:15:13;21.10;;;13.95;;
63089;SDS011;49174;43.198;27.824;2023-04-10T03:20:27;24.88;;;13.68;;
63089;SDS011;49174;43.198;27.824;2023-04-10T03:22:53;20.33;;;12.75;;
63089;SDS011;49174;43.198;27.824;2023-04-10T03:25:19;23.45;;;12.20;;
63089;SDS011;49174;43.198;27.824;2023-04-10T03:27:45;22.67;;;13.07;;
63089;SDS011;49174;43.198;27.824;2023-04-10T03:35:35;36.80;;;22.05;;
63089;SDS011;49174;43.198;27.824;2023-04-10T03:38:01;33.38;;;20.60;;
63089;SDS011;49174;43.198;27.824;2023-04-10T03:40:26;32.70;;;21.70;;
63089;SDS011;49174;43.198;27.824;2023-04-10T03:42:52;23.77;;;14.18;;
63089;SDS011;49174;43.198;27.824;2023-04-10T03:45:19;24.05;;;14.60;;
63089;SDS011;49174;43.198;27.824;2023-04-10T03:47:45;26.95;;;15.07;;
63089;SDS011;49174;43.198;27.824;2023-04-10T03:50:11;22.88;;;14.70;;
63089;SDS011;49174;43.198;27.824;2023-04-10T03:52:37;20.52;;;11.95;;
63089;SDS011;49174;43.198;27.824;2023-04-10T03:55:04;19.23;;;11.52;;
63089;SDS011;49174;43.198;27.824;2023-04-10T03:57:30;20.13;;;10.63;;
63089;SDS011;49174;43.198;27.824;2023-04-10T03:59:56;15.57;;;9.05;;
63089;SDS011;49174;43.198;27.824;2023-04-10T04:02:21;17.08;;;10.63;;
63089;SDS011;49174;43.198;27.824;2023-04-10T04:04:47;19.77;;;12.32;;
63089;SDS011;49174;43.198;27.824;2023-04-10T04:07:12;18.27;;;9.55;;
63089;SDS011;49174;43.198;27.824;2023-04-10T04:09:38;17.25;;;10.20;;
63089;SDS011;49174;43.198;27.824;2023-04-10T04:12:05;18.00;;;11.43;;
63089;SDS011;49174;43.198;27.824;2023-04-10T04:14:32;15.10;;;9.45;;
63089;SDS011;49174;43.198;27.824;2023-04-10T04:16:57;17.63;;;10.38;;
63089;SDS011;49174;43.198;27.824;2023-04-10T04:19:23;17.92;;;11.23;;
63089;SDS011;49174;43.198;27.824;2023-04-10T04:21:49;16.90;;;9.88;;
63089;SDS011;49174;43.198;27.824;2023-04-10T04:24:15;16.77;;;9.93;;
63089;SDS011;49174;43.198;27.824;2023-04-10T04:26:40;18.85;;;10.50;;
63089;SDS011;49174;43.198;27.824;2023-04-10T04:29:06;15.90;;;9.80;;
63089;SDS011;49174;43.198;27.824;2023-04-10T04:31:31;15.40;;;9.27;;
63089;SDS011;49174;43.198;27.824;2023-04-10T04:33:57;13.75;;;7.97;;
63089;SDS011;49174;43.198;27.824;2023-04-10T04:36:23;18.10;;;9.13;;
63089;SDS011;49174;43.198;27.824;2023-04-10T04:38:49;17.50;;;9.70;;
63089;SDS011;49174;43.198;27.824;2023-04-10T04:41:15;17.10;;;10.20;;
63089;SDS011;49174;43.198;27.824;2023-04-10T04:43:41;19.63;;;10.95;;
63089;SDS011;49174;43.198;27.824;2023-04-10T04:46:06;18.52;;;10.38;;
63089;SDS011;49174;43.198;27.824;2023-04-10T04:48:33;17.63;;;10.20;;
63089;SDS011;49174;43.198;27.824;2023-04-10T04:50:59;16.83;;;10.63;;
63089;SDS011;49174;43.198;27.824;2023-04-10T04:53:24;21.27;;;12.07;;
63089;SDS011;49174;43.198;27.824;2023-04-10T04:55:50;18.30;;;11.20;;
63089;SDS011;49174;43.198;27.824;2023-04-10T04:58:15;17.00;;;10.32;;
63089;SDS011;49174;43.198;27.824;2023-04-10T05:00:41;15.75;;;9.13;;
63089;SDS011;49174;43.198;27.824;2023-04-10T05:03:06;14.10;;;9.25;;
63089;SDS011;49174;43.198;27.824;2023-04-10T05:05:32;20.38;;;12.25;;
63089;SDS011;49174;43.198;27.824;2023-04-10T05:07:57;18.70;;;12.25;;
63089;SDS011;49174;43.198;27.824;2023-04-10T05:10:23;16.35;;;10.30;;
63089;SDS011;49174;43.198;27.824;2023-04-10T05:12:48;17.17;;;11.10;;
63089;SDS011;49174;43.198;27.824;2023-04-10T05:15:14;16.73;;;9.88;;
63089;SDS011;49174;43.198;27.824;2023-04-10T05:17:40;18.92;;;9.13;;
63089;SDS011;49174;43.198;27.824;2023-04-10T05:20:05;15.05;;;8.98;;
63089;SDS011;49174;43.198;27.824;2023-04-10T05:22:35;18.25;;;9.93;;
63089;SDS011;49174;43.198;27.824;2023-04-10T05:25:01;12.05;;;8.15;;
63089;SDS011;49174;43.198;27.824;2023-04-10T05:27:27;15.88;;;7.65;;
63089;SDS011;49174;43.198;27.824;2023-04-10T05:29:53;15.63;;;8.40;;
63089;SDS011;49174;43.198;27.824;2023-04-10T05:32:19;14.10;;;7.78;;
63089;SDS011;49174;43.198;27.824;2023-04-10T05:34:44;11.63;;;7.47;;
63089;SDS011;49174;43.198;27.824;2023-04-10T05:37:10;15.90;;;7.28;;
63089;SDS011;49174;43.198;27.824;2023-04-10T05:39:37;12.10;;;7.47;;
63089;SDS011;49174;43.198;27.824;2023-04-10T05:42:02;11.35;;;6.97;;
63089;SDS011;49174;43.198;27.824;2023-04-10T05:44:28;14.18;;;6.32;;
63089;SDS011;49174;43.198;27.824;2023-04-10T05:46:53;13.13;;;7.20;;
63089;SDS011;49174;43.198;27.824;2023-04-10T05:49:19;9.95;;;6.47;;
63089;SDS011;49174;43.198;27.824;2023-04-10T05:51:44;12.05;;;7.50;;
63089;SDS011;49174;43.198;27.824;2023-04-10T05:54:14;12.75;;;6.93;;
63089;SDS011;49174;43.198;27.824;2023-04-10T05:56:40;12.00;;;6.75;;
63089;SDS011;49174;43.198;27.824;2023-04-10T05:59:06;11.68;;;6.95;;
63089;SDS011;49174;43.198;27.824;2023-04-10T06:01:32;12.43;;;7.50;;
63089;SDS011;49174;43.198;27.824;2023-04-10T06:03:57;13.25;;;8.80;;
63089;SDS011;49174;43.198;27.824;2023-04-10T06:06:24;10.48;;;6.10;;
63089;SDS011;49174;43.198;27.824;2023-04-10T06:08:50;7.10;;;5.05;;
63089;SDS011;49174;43.198;27.824;2023-04-10T06:11:16;8.38;;;5.50;;
63089;SDS011;49174;43.198;27.824;2023-04-10T06:13:42;8.20;;;5.18;;
63089;SDS011;49174;43.198;27.824;2023-04-10T06:16:09;7.15;;;4.75;;
63089;SDS011;49174;43.198;27.824;2023-04-10T06:18:36;9.32;;;5.47;;
63089;SDS011;49174;43.198;27.824;2023-04-10T06:21:02;7.70;;;5.20;;
63089;SDS011;49174;43.198;27.824;2023-04-10T06:23:27;11.63;;;4.97;;
63089;SDS011;49174;43.198;27.824;2023-04-10T06:25:54;11.43;;;5.78;;
63089;SDS011;49174;43.198;27.824;2023-04-10T06:28:19;10.20;;;5.90;;
63089;SDS011;49174;43.198;27.824;2023-04-10T06:30:45;8.93;;;5.68;;
63089;SDS011;49174;43.198;27.824;2023-04-10T08:25:04;6.95;;;4.20;;
63089;SDS011;49174;43.198;27.824;2023-04-10T08:27:30;8.15;;;4.13;;
63089;SDS011;49174;43.198;27.824;2023-04-10T08:29:56;6.65;;;3.97;;
63089;SDS011;49174;43.198;27.824;2023-04-10T08:32:23;11.55;;;4.82;;
63089;SDS011;49174;43.198;27.824;2023-04-10T08:40:42;6.40;;;4.00;;
63089;SDS011;49174;43.198;27.824;2023-04-10T08:43:08;6.10;;;4.10;;
63089;SDS011;49174;43.198;27.824;2023-04-10T08:45:34;13.35;;;6.53;;
63089;SDS011;49174;43.198;27.824;2023-04-10T09:02:40;17.50;;;11.02;;
63089;SDS011;49174;43.198;27.824;2023-04-10T09:44:05;8.77;;;6.35;;
63089;SDS011;49174;43.198;27.824;2023-04-10T09:49:34;10.75;;;6.30;;
63089;SDS011;49174;43.198;27.824;2023-04-10T10:03:40;10.77;;;6.75;;
63089;SDS011;49174;43.198;27.824;2023-04-10T10:23:43;10.32;;;5.78;;
63089;SDS011;49174;43.198;27.824;2023-04-10T11:51:37;4.68;;;3.45;;
63089;SDS011;49174;43.198;27.824;2023-04-10T11:59:29;5.85;;;3.88;;
63089;SDS011;49174;43.198;27.824;2023-04-10T12:10:46;5.47;;;3.58;;
63089;SDS011;49174;43.198;27.824;2023-04-10T12:13:25;5.28;;;3.70;;
63089;SDS011;49174;43.198;27.824;2023-04-10T12:15:52;5.97;;;3.00;;
63089;SDS011;49174;43.198;27.824;2023-04-10T12:18:21;7.25;;;3.60;;
63089;SDS011;49174;43.198;27.824;2023-04-10T12:20:47;5.57;;;3.80;;
63089;SDS011;49174;43.198;27.824;2023-04-10T12:26:08;6.32;;;4.20;;
63089;SDS011;49174;43.198;27.824;2023-04-10T12:28:41;6.07;;;4.05;;
63089;SDS011;49174;43.198;27.824;2023-04-10T12:33:53;7.13;;;4.05;;
63089;SDS011;49174;43.198;27.824;2023-04-10T12:36:23;8.85;;;3.88;;
63089;SDS011;49174;43.198;27.824;2023-04-10T12:44:55;6.45;;;4.25;;
63089;SDS011;49174;43.198;27.824;2023-04-10T12:47:26;7.10;;;3.83;;
63089;SDS011;49174;43.198;27.824;2023-04-10T12:52:28;7.22;;;3.83;;
63089;SDS011;49174;43.198;27.824;2023-04-10T12:54:54;5.35;;;3.40;;
63089;SDS011;49174;43.198;27.824;2023-04-10T12:57:25;7.20;;;4.20;;
63089;SDS011;49174;43.198;27.824;2023-04-10T12:59:54;7.68;;;4.40;;
63089;SDS011;49174;43.198;27.824;2023-04-10T13:02:20;4.68;;;3.33;;
63089;SDS011;49174;43.198;27.824;2023-04-10T13:04:46;4.47;;;3.22;;
63089;SDS011;49174;43.198;27.824;2023-04-10T13:07:11;9.63;;;3.97;;
63089;SDS011;49174;43.198;27.824;2023-04-10T13:09:37;4.85;;;3.53;;
63089;SDS011;49174;43.198;27.824;2023-04-10T13:12:02;7.10;;;4.13;;
63089;SDS011;49174;43.198;27.824;2023-04-10T13:14:30;7.35;;;4.13;;
63089;SDS011;49174;43.198;27.824;2023-04-10T13:16:57;7.90;;;4.30;;
63089;SDS011;49174;43.198;27.824;2023-04-10T13:19:22;6.38;;;3.80;;
63089;SDS011;49174;43.198;27.824;2023-04-10T13:21:48;5.80;;;4.40;;
63089;SDS011;49174;43.198;27.824;2023-04-10T13:24:15;5.82;;;3.58;;
63089;SDS011;49174;43.198;27.824;2023-04-10T13:26:41;5.53;;;3.83;;
63089;SDS011;49174;43.198;27.824;2023-04-10T13:29:06;8.18;;;3.95;;
63089;SDS011;49174;43.198;27.824;2023-04-10T13:31:32;6.50;;;3.92;;
63089;SDS011;49174;43.198;27.824;2023-04-10T13:33:57;7.35;;;3.80;;
63089;SDS011;49174;43.198;27.824;2023-04-10T13:36:22;9.07;;;3.75;;
63089;SDS011;49174;43.198;27.824;2023-04-10T13:38:48;9.82;;;3.85;;
63089;SDS011;49174;43.198;27.824;2023-04-10T13:41:13;4.82;;;3.67;;
63089;SDS011;49174;43.198;27.824;2023-04-10T13:43:39;4.95;;;3.67;;
63089;SDS011;49174;43.198;27.824;2023-04-10T13:46:04;5.25;;;3.85;;
63089;SDS011;49174;43.198;27.824;2023-04-10T13:48:30;8.80;;;3.97;;
63089;SDS011;49174;43.198;27.824;2023-04-10T13:50:56;5.07;;;3.17;;
63089;SDS011;49174;43.198;27.824;2023-04-10T13:53:21;5.90;;;3.80;;
63089;SDS011;49174;43.198;27.824;2023-04-10T13:55:48;4.90;;;3.90;;
63089;SDS011;49174;43.198;27.824;2023-04-10T13:58:14;6.07;;;3.97;;
63089;SDS011;49174;43.198;27.824;2023-04-10T14:00:43;5.93;;;3.65;;
63089;SDS011;49174;43.198;27.824;2023-04-10T14:03:09;7.10;;;3.65;;
63089;SDS011;49174;43.198;27.824;2023-04-10T14:05:36;7.18;;;3.92;;
63089;SDS011;49174;43.198;27.824;2023-04-10T14:08:03;6.47;;;3.45;;
63089;SDS011;49174;43.198;27.824;2023-04-10T14:10:29;5.20;;;3.35;;
63089;SDS011;49174;43.198;27.824;2023-04-10T14:12:55;4.65;;;3.30;;
63089;SDS011;49174;43.198;27.824;2023-04-10T14:15:21;6.13;;;3.35;;
63089;SDS011;49174;43.198;27.824;2023-04-10T14:17:46;7.40;;;3.42;;
63089;SDS011;49174;43.198;27.824;2023-04-10T14:20:12;6.38;;;3.70;;
63089;SDS011;49174;43.198;27.824;2023-04-10T14:22:38;4.40;;;3.33;;
63089;SDS011;49174;43.198;27.824;2023-04-10T14:25:03;5.53;;;2.97;;
63089;SDS011;49174;43.198;27.824;2023-04-10T14:27:30;5.35;;;3.15;;
63089;SDS011;49174;43.198;27.824;2023-04-10T14:29:56;4.30;;;2.80;;
63089;SDS011;49174;43.198;27.824;2023-04-10T14:32:22;7.00;;;3.53;;
63089;SDS011;49174;43.198;27.824;2023-04-10T14:34:47;5.70;;;3.05;;
63089;SDS011;49174;43.198;27.824;2023-04-10T14:37:13;4.50;;;3.05;;
63089;SDS011;49174;43.198;27.824;2023-04-10T14:39:38;13.02;;;9.20;;
63089;SDS011;49174;43.198;27.824;2023-04-10T14:42:04;8.55;;;4.13;;
63089;SDS011;49174;43.198;27.824;2023-04-10T14:44:31;5.47;;;2.97;;
63089;SDS011;49174;43.198;27.824;2023-04-10T14:46:56;4.65;;;3.28;;
63089;SDS011;49174;43.198;27.824;2023-04-10T14:49:22;5.30;;;3.35;;
63089;SDS011;49174;43.198;27.824;2023-04-10T14:51:47;5.57;;;3.53;;
63089;SDS011;49174;43.198;27.824;2023-04-10T14:54:14;4.15;;;3.00;;
63089;SDS011;49174;43.198;27.824;2023-04-10T14:56:46;9.77;;;5.13;;
63089;SDS011;49174;43.198;27.824;2023-04-10T14:59:12;7.97;;;3.72;;
63089;SDS011;49174;43.198;27.824;2023-04-10T15:01:37;5.68;;;3.42;;
63089;SDS011;49174;43.198;27.824;2023-04-10T15:04:03;5.55;;;3.60;;
63089;SDS011;49174;43.198;27.824;2023-04-10T15:06:28;12.02;;;7.65;;
63089;SDS011;49174;43.198;27.824;2023-04-10T15:08:56;21.17;;;12.77;;
63089;SDS011;49174;43.198;27.824;2023-04-10T15:11:22;10.27;;;4.40;;
63089;SDS011;49174;43.198;27.824;2023-04-10T15:13:47;8.38;;;3.40;;
63089;SDS011;49174;43.198;27.824;2023-04-10T15:16:13;4.28;;;3.20;;
63089;SDS011;49174;43.198;27.824;2023-04-10T15:18:38;6.07;;;3.25;;
63089;SDS011;49174;43.198;27.824;2023-04-10T15:21:04;9.27;;;3.60;;
63089;SDS011;49174;43.198;27.824;2023-04-10T15:23:30;6.65;;;3.63;;
63089;SDS011;49174;43.198;27.824;2023-04-10T15:25:56;7.00;;;3.67;;
63089;SDS011;49174;43.198;27.824;2023-04-10T15:28:22;5.68;;;3.70;;
63089;SDS011;49174;43.198;27.824;2023-04-10T15:30:47;7.43;;;3.85;;
63089;SDS011;49174;43.198;27.824;2023-04-10T15:33:14;4.55;;;3.13;;
63089;SDS011;49174;43.198;27.824;2023-04-10T15:35:49;5.50;;;3.33;;
63089;SDS011;49174;43.198;27.824;2023-04-10T15:38:15;8.20;;;3.50;;
63089;SDS011;49174;43.198;27.824;2023-04-10T15:40:40;6.28;;;4.30;;
63089;SDS011;49174;43.198;27.824;2023-04-10T15:43:06;6.75;;;3.80;;
63089;SDS011;49174;43.198;27.824;2023-04-10T15:45:31;9.00;;;3.38;;
63089;SDS011;49174;43.198;27.824;2023-04-10T15:47:57;5.25;;;3.60;;
63089;SDS011;49174;43.198;27.824;2023-04-10T15:50:25;9.38;;;5.28;;
63089;SDS011;49174;43.198;27.824;2023-04-10T15:52:51;9.48;;;4.32;;
63089;SDS011;49174;43.198;27.824;2023-04-10T15:55:16;6.78;;;4.18;;
63089;SDS011;49174;43.198;27.824;2023-04-10T15:57:42;6.13;;;4.10;;
63089;SDS011;49174;43.198;27.824;2023-04-10T16:00:08;7.75;;;4.70;;
63089;SDS011;49174;43.198;27.824;2023-04-10T16:02:34;9.13;;;3.95;;
63089;SDS011;49174;43.198;27.824;2023-04-10T16:04:59;10.30;;;4.93;;
63089;SDS011;49174;43.198;27.824;2023-04-10T16:07:25;8.45;;;4.68;;
63089;SDS011;49174;43.198;27.824;2023-04-10T16:09:50;7.75;;;3.95;;
63089;SDS011;49174;43.198;27.824;2023-04-10T16:12:17;12.15;;;9.50;;
63089;SDS011;49174;43.198;27.824;2023-04-10T16:14:43;14.85;;;8.13;;
63089;SDS011;49174;43.198;27.824;2023-04-10T16:17:08;8.30;;;6.70;;
63089;SDS011;49174;43.198;27.824;2023-04-10T16:19:34;9.57;;;5.65;;
63089;SDS011;49174;43.198;27.824;2023-04-10T16:21:59;10.55;;;4.68;;
63089;SDS011;49174;43.198;27.824;2023-04-10T16:24:25;8.05;;;4.53;;
63089;SDS011;49174;43.198;27.824;2023-04-10T16:26:51;8.27;;;4.97;;
63089;SDS011;49174;43.198;27.824;2023-04-10T16:29:18;6.15;;;4.30;;
63089;SDS011;49174;43.198;27.824;2023-04-10T16:31:44;5.90;;;4.10;;
63089;SDS011;49174;43.198;27.824;2023-04-10T16:34:09;8.05;;;4.63;;
63089;SDS011;49174;43.198;27.824;2023-04-10T16:36:35;14.70;;;7.13;;
63089;SDS011;49174;43.198;27.824;2023-04-10T16:39:01;10.00;;;6.20;;
63089;SDS011;49174;43.198;27.824;2023-04-10T16:41:26;23.65;;;13.48;;
63089;SDS011;49174;43.198;27.824;2023-04-10T16:43:52;21.75;;;12.23;;
63089;SDS011;49174;43.198;27.824;2023-04-10T16:46:17;27.13;;;14.10;;
63089;SDS011;49174;43.198;27.824;2023-04-10T16:48:44;22.77;;;11.32;;
63089;SDS011;49174;43.198;27.824;2023-04-10T16:51:15;19.73;;;11.80;;
63089;SDS011;49174;43.198;27.824;2023-04-10T16:53:42;12.13;;;7.45;;
63089;SDS011;49174;43.198;27.824;2023-04-10T16:56:08;11.38;;;6.30;;
63089;SDS011;49174;43.198;27.824;2023-04-10T16:58:34;8.13;;;5.20;;
63089;SDS011;49174;43.198;27.824;2023-04-10T17:01:17;8.73;;;6.13;;
63089;SDS011;49174;43.198;27.824;2023-04-10T17:03:44;12.20;;;5.37;;
63089;SDS011;49174;43.198;27.824;2023-04-10T17:06:11;9.23;;;4.50;;
63089;SDS011;49174;43.198;27.824;2023-04-10T17:08:37;6.18;;;3.67;;
63089;SDS011;49174;43.198;27.824;2023-04-10T17:11:03;5.13;;;3.80;;
63089;SDS011;49174;43.198;27.824;2023-04-10T17:13:55;6.28;;;4.10;;
63089;SDS011;49174;43.198;27.824;2023-04-10T17:16:23;6.28;;;4.40;;
63089;SDS011;49174;43.198;27.824;2023-04-10T17:19:18;6.13;;;4.60;;
63089;SDS011;49174;43.198;27.824;2023-04-10T17:22:12;7.25;;;4.25;;
63089;SDS011;49174;43.198;27.824;2023-04-10T17:24:43;6.40;;;5.07;;
63089;SDS011;49174;43.198;27.824;2023-04-10T17:33:18;19.88;;;10.15;;
63089;SDS011;49174;43.198;27.824;2023-04-10T17:36:04;37.83;;;21.75;;
63089;SDS011;49174;43.198;27.824;2023-04-10T17:38:34;19.30;;;10.52;;
63089;SDS011;49174;43.198;27.824;2023-04-10T17:41:08;24.38;;;13.57;;
63089;SDS011;49174;43.198;27.824;2023-04-10T17:43:43;17.02;;;11.15;;
63089;SDS011;49174;43.198;27.824;2023-04-10T17:46:19;21.70;;;12.07;;
63089;SDS011;49174;43.198;27.824;2023-04-10T17:54:33;8.98;;;6.43;;
63089;SDS011;49174;43.198;27.824;2023-04-10T18:08:04;8.05;;;4.13;;
63089;SDS011;49174;43.198;27.824;2023-04-10T18:14:11;7.78;;;5.00;;
63089;SDS011;49174;43.198;27.824;2023-04-10T18:16:37;9.27;;;5.90;;
63089;SDS011;49174;43.198;27.824;2023-04-10T18:24:44;5.40;;;3.05;;
63089;SDS011;49174;43.198;27.824;2023-04-10T18:32:35;6.07;;;3.92;;
63089;SDS011;49174;43.198;27.824;2023-04-10T18:35:01;6.85;;;3.70;;
63089;SDS011;49174;43.198;27.824;2023-04-10T18:37:28;6.80;;;4.93;;
63089;SDS011;49174;43.198;27.824;2023-04-10T18:39:54;11.20;;;6.18;;
63089;SDS011;49174;43.198;27.824;2023-04-10T18:42:20;8.05;;;6.75;;
63089;SDS011;49174;43.198;27.824;2023-04-10T18:44:46;7.25;;;4.80;;
63089;SDS011;49174;43.198;27.824;2023-04-10T18:47:12;6.45;;;3.78;;
63089;SDS011;49174;43.198;27.824;2023-04-10T18:52:49;6.95;;;4.40;;
63089;SDS011;49174;43.198;27.824;2023-04-10T19:01:07;6.95;;;4.13;;
63089;SDS011;49174;43.198;27.824;2023-04-10T19:03:34;7.10;;;3.88;;
63089;SDS011;49174;43.198;27.824;2023-04-10T19:06:00;5.63;;;4.10;;
63089;SDS011;49174;43.198;27.824;2023-04-10T19:08:26;8.18;;;4.00;;
63089;SDS011;49174;43.198;27.824;2023-04-10T19:11:02;12.45;;;3.97;;
63089;SDS011;49174;43.198;27.824;2023-04-10T19:16:17;14.77;;;6.28;;
63089;SDS011;49174;43.198;27.824;2023-04-10T19:48:47;9.02;;;5.13;;
63089;SDS011;49174;43.198;27.824;2023-04-10T20:14:40;9.02;;;4.28;;
63089;SDS011;49174;43.198;27.824;2023-04-10T20:19:50;33.88;;;20.70;;
63089;SDS011;49174;43.198;27.824;2023-04-10T20:22:16;18.90;;;11.85;;
63089;SDS011;49174;43.198;27.824;2023-04-10T20:39:21;8.38;;;3.97;;
63089;SDS011;49174;43.198;27.824;2023-04-10T20:48:12;7.28;;;4.35;;
63089;SDS011;49174;43.198;27.824;2023-04-10T20:50:44;10.15;;;4.90;;
63089;SDS011;49174;43.198;27.824;2023-04-10T21:31:55;9.15;;;5.55;;
63089;SDS011;49174;43.198;27.824;2023-04-10T22:13:48;11.30;;;7.15;;
63089;SDS011;49174;43.198;27.824;2023-04-10T22:16:14;14.75;;;6.85;;
63089;SDS011;49174;43.198;27.824;2023-04-10T23:21:49;13.82;;;8.40;;
63089;SDS011;49174;43.198;27.824;2023-04-10T23:24:18;15.68;;;8.90;;
63089;SDS011;49174;43.198;27.824;2023-04-10T23:26:44;14.32;;;9.00;;
